sensor_id;sensor_type;location;lat;lon;timestamp;temperature;humidity
19755;DHT22;10036;47.812;9.274;2022-09-09T00:01:43;14.50;99.90
19755;DHT22;10036;47.812;9.274;2022-09-09T00:04:21;14.50;99.90
19755;DHT22;10036;47.812;9.274;2022-09-09T00:06:58;14.50;99.90
19755;DHT22;10036;47.812;9.274;2022-09-09T00:09:28;14.50;99.90
19755;DHT22;10036;47.812;9.274;2022-09-09T00:12:00;14.30;99.90
19755;DHT22;10036;47.812;9.274;2022-09-09T00:14:36;14.20;99.90
19755;DHT22;10036;47.812;9.274;2022-09-09T00:17:08;14.10;99.90
19755;DHT22;10036;47.812;9.274;2022-09-09T00:19:41;14.30;99.90
19755;DHT22;10036;47.812;9.274;2022-09-09T00:22:16;14.10;99.90
19755;DHT22;10036;47.812;9.274;2022-09-09T00:24:45;14.20;99.90
19755;DHT22;10036;47.812;9.274;2022-09-09T00:27:19;14.30;99.90
19755;DHT22;10036;47.812;9.274;2022-09-09T00:29:53;14.30;99.90
19755;DHT22;10036;47.812;9.274;2022-09-09T00:32:21;14.10;99.90
19755;DHT22;10036;47.812;9.274;2022-09-09T00:34:51;14.10;99.90
19755;DHT22;10036;47.812;9.274;2022-09-09T00:37:20;14.10;99.90
19755;DHT22;10036;47.812;9.274;2022-09-09T00:39:48;14.20;99.90
19755;DHT22;10036;47.812;9.274;2022-09-09T00:42:20;14.10;99.90
19755;DHT22;10036;47.812;9.274;2022-09-09T00:44:58;13.90;99.90
19755;DHT22;10036;47.812;9.274;2022-09-09T00:47:39;13.80;99.90
19755;DHT22;10036;47.812;9.274;2022-09-09T00:50:29;13.70;99.90
19755;DHT22;10036;47.812;9.274;2022-09-09T00:53:05;13.80;99.90
19755;DHT22;10036;47.812;9.274;2022-09-09T00:55:43;14.00;99.90
19755;DHT22;10036;47.812;9.274;2022-09-09T00:58:12;14.00;99.90
19755;DHT22;10036;47.812;9.274;2022-09-09T01:00:43;14.00;99.90
19755;DHT22;10036;47.812;9.274;2022-09-09T01:03:19;13.80;99.90
19755;DHT22;10036;47.812;9.274;2022-09-09T01:05:59;13.70;99.90
19755;DHT22;10036;47.812;9.274;2022-09-09T01:08:41;13.60;99.90
19755;DHT22;10036;47.812;9.274;2022-09-09T01:11:15;13.70;99.90
19755;DHT22;10036;47.812;9.274;2022-09-09T01:13:45;13.90;99.90
19755;DHT22;10036;47.812;9.274;2022-09-09T01:16:16;14.00;99.90
19755;DHT22;10036;47.812;9.274;2022-09-09T01:18:45;13.80;99.90
19755;DHT22;10036;47.812;9.274;2022-09-09T01:21:22;13.80;99.90
19755;DHT22;10036;47.812;9.274;2022-09-09T01:24:08;13.80;99.90
19755;DHT22;10036;47.812;9.274;2022-09-09T01:26:41;13.80;99.90
19755;DHT22;10036;47.812;9.274;2022-09-09T01:29:10;14.00;99.90
19755;DHT22;10036;47.812;9.274;2022-09-09T01:31:39;14.00;99.90
19755;DHT22;10036;47.812;9.274;2022-09-09T01:34:11;13.90;99.90
19755;DHT22;10036;47.812;9.274;2022-09-09T01:36:42;14.10;99.90
19755;DHT22;10036;47.812;9.274;2022-09-09T01:39:10;14.10;99.90
19755;DHT22;10036;47.812;9.274;2022-09-09T01:41:37;14.00;99.90
19755;DHT22;10036;47.812;9.274;2022-09-09T01:44:07;13.90;99.90
19755;DHT22;10036;47.812;9.274;2022-09-09T01:46:34;13.80;99.90
19755;DHT22;10036;47.812;9.274;2022-09-09T01:49:02;13.70;99.90
19755;DHT22;10036;47.812;9.274;2022-09-09T01:51:30;13.70;99.90
19755;DHT22;10036;47.812;9.274;2022-09-09T01:53:57;13.70;99.90
19755;DHT22;10036;47.812;9.274;2022-09-09T01:56:35;13.80;99.90
19755;DHT22;10036;47.812;9.274;2022-09-09T01:59:24;13.70;99.90
19755;DHT22;10036;47.812;9.274;2022-09-09T02:02:05;13.70;99.90
19755;DHT22;10036;47.812;9.274;2022-09-09T02:04:38;13.60;99.90
19755;DHT22;10036;47.812;9.274;2022-09-09T02:07:13;13.50;99.90
19755;DHT22;10036;47.812;9.274;2022-09-09T02:09:44;13.70;99.90
19755;DHT22;10036;47.812;9.274;2022-09-09T02:12:14;13.70;99.90
19755;DHT22;10036;47.812;9.274;2022-09-09T02:14:50;13.80;99.90
19755;DHT22;10036;47.812;9.274;2022-09-09T02:17:21;13.80;99.90
19755;DHT22;10036;47.812;9.274;2022-09-09T02:19:53;13.80;99.90
19755;DHT22;10036;47.812;9.274;2022-09-09T02:22:24;13.80;99.90
19755;DHT22;10036;47.812;9.274;2022-09-09T02:24:56;13.80;99.90
19755;DHT22;10036;47.812;9.274;2022-09-09T02:27:24;13.60;99.90
19755;DHT22;10036;47.812;9.274;2022-09-09T02:29:55;13.80;99.90
19755;DHT22;10036;47.812;9.274;2022-09-09T02:32:24;13.90;99.90
19755;DHT22;10036;47.812;9.274;2022-09-09T02:34:54;14.00;99.90
19755;DHT22;10036;47.812;9.274;2022-09-09T02:37:26;14.00;99.90
19755;DHT22;10036;47.812;9.274;2022-09-09T02:39:55;13.80;99.90
19755;DHT22;10036;47.812;9.274;2022-09-09T02:42:21;13.80;99.90
19755;DHT22;10036;47.812;9.274;2022-09-09T02:44:49;13.80;99.90
19755;DHT22;10036;47.812;9.274;2022-09-09T02:47:30;13.90;99.90
19755;DHT22;10036;47.812;9.274;2022-09-09T02:50:07;13.90;99.90
19755;DHT22;10036;47.812;9.274;2022-09-09T02:52:42;13.90;99.90
19755;DHT22;10036;47.812;9.274;2022-09-09T02:55:16;13.90;99.90
19755;DHT22;10036;47.812;9.274;2022-09-09T02:57:46;13.80;99.90
19755;DHT22;10036;47.812;9.274;2022-09-09T03:00:14;13.80;99.90
19755;DHT22;10036;47.812;9.274;2022-09-09T03:02:42;13.70;99.90
19755;DHT22;10036;47.812;9.274;2022-09-09T03:05:10;13.80;99.90
19755;DHT22;10036;47.812;9.274;2022-09-09T03:07:38;14.00;99.90
19755;DHT22;10036;47.812;9.274;2022-09-09T03:10:06;14.00;99.90
19755;DHT22;10036;47.812;9.274;2022-09-09T03:12:33;14.10;99.90
19755;DHT22;10036;47.812;9.274;2022-09-09T03:15:00;14.10;99.90
19755;DHT22;10036;47.812;9.274;2022-09-09T03:17:27;14.10;99.90
19755;DHT22;10036;47.812;9.274;2022-09-09T03:19:55;14.20;99.90
19755;DHT22;10036;47.812;9.274;2022-09-09T03:22:23;14.20;99.90
19755;DHT22;10036;47.812;9.274;2022-09-09T03:24:50;14.30;99.90
19755;DHT22;10036;47.812;9.274;2022-09-09T03:27:18;14.40;99.90
19755;DHT22;10036;47.812;9.274;2022-09-09T03:29:45;14.40;99.90
19755;DHT22;10036;47.812;9.274;2022-09-09T03:32:12;14.40;99.90
19755;DHT22;10036;47.812;9.274;2022-09-09T03:34:43;14.30;99.90
19755;DHT22;10036;47.812;9.274;2022-09-09T03:37:11;14.30;99.90
19755;DHT22;10036;47.812;9.274;2022-09-09T03:39:38;14.20;99.90
19755;DHT22;10036;47.812;9.274;2022-09-09T03:42:05;14.10;99.90
19755;DHT22;10036;47.812;9.274;2022-09-09T03:44:32;14.20;99.90
19755;DHT22;10036;47.812;9.274;2022-09-09T03:46:59;14.10;99.90
19755;DHT22;10036;47.812;9.274;2022-09-09T03:49:26;14.20;99.90
19755;DHT22;10036;47.812;9.274;2022-09-09T03:51:54;14.20;99.90
19755;DHT22;10036;47.812;9.274;2022-09-09T03:54:23;14.30;99.90
19755;DHT22;10036;47.812;9.274;2022-09-09T03:56:50;14.40;99.90
19755;DHT22;10036;47.812;9.274;2022-09-09T03:59:17;14.40;99.90
19755;DHT22;10036;47.812;9.274;2022-09-09T04:01:44;14.40;99.90
19755;DHT22;10036;47.812;9.274;2022-09-09T04:04:10;14.40;99.90
19755;DHT22;10036;47.812;9.274;2022-09-09T04:06:37;14.40;99.90
19755;DHT22;10036;47.812;9.274;2022-09-09T04:09:04;14.30;99.90
19755;DHT22;10036;47.812;9.274;2022-09-09T04:11:32;14.40;99.90
19755;DHT22;10036;47.812;9.274;2022-09-09T04:13:59;14.40;99.90
19755;DHT22;10036;47.812;9.274;2022-09-09T04:16:26;14.50;99.90
19755;DHT22;10036;47.812;9.274;2022-09-09T04:18:53;14.50;99.90
19755;DHT22;10036;47.812;9.274;2022-09-09T04:21:21;14.60;99.90
19755;DHT22;10036;47.812;9.274;2022-09-09T04:23:48;14.50;99.90
19755;DHT22;10036;47.812;9.274;2022-09-09T04:26:15;14.60;99.90
19755;DHT22;10036;47.812;9.274;2022-09-09T04:28:44;14.60;99.90
19755;DHT22;10036;47.812;9.274;2022-09-09T04:31:14;14.40;99.90
19755;DHT22;10036;47.812;9.274;2022-09-09T04:33:41;14.30;99.90
19755;DHT22;10036;47.812;9.274;2022-09-09T04:36:08;14.30;99.90
19755;DHT22;10036;47.812;9.274;2022-09-09T04:38:35;14.30;99.90
19755;DHT22;10036;47.812;9.274;2022-09-09T04:41:02;14.30;99.90
19755;DHT22;10036;47.812;9.274;2022-09-09T04:43:29;14.30;99.90
19755;DHT22;10036;47.812;9.274;2022-09-09T04:45:57;14.30;99.90
19755;DHT22;10036;47.812;9.274;2022-09-09T04:48:25;14.30;99.90
19755;DHT22;10036;47.812;9.274;2022-09-09T04:50:56;14.40;99.90
19755;DHT22;10036;47.812;9.274;2022-09-09T04:53:24;14.50;99.90
19755;DHT22;10036;47.812;9.274;2022-09-09T04:55:51;14.40;99.90
19755;DHT22;10036;47.812;9.274;2022-09-09T04:58:18;14.40;99.90
19755;DHT22;10036;47.812;9.274;2022-09-09T05:00:47;14.50;99.90
19755;DHT22;10036;47.812;9.274;2022-09-09T05:03:15;14.60;99.90
19755;DHT22;10036;47.812;9.274;2022-09-09T05:05:42;14.60;99.90
19755;DHT22;10036;47.812;9.274;2022-09-09T05:08:09;14.60;99.90
19755;DHT22;10036;47.812;9.274;2022-09-09T05:10:37;14.60;99.90
19755;DHT22;10036;47.812;9.274;2022-09-09T05:13:05;14.70;99.90
19755;DHT22;10036;47.812;9.274;2022-09-09T05:15:33;14.60;99.90
19755;DHT22;10036;47.812;9.274;2022-09-09T05:18:01;14.50;99.90
19755;DHT22;10036;47.812;9.274;2022-09-09T05:20:30;14.40;99.90
19755;DHT22;10036;47.812;9.274;2022-09-09T05:22:57;14.40;99.90
19755;DHT22;10036;47.812;9.274;2022-09-09T05:25:24;14.50;99.90
19755;DHT22;10036;47.812;9.274;2022-09-09T05:27:52;14.40;99.90
19755;DHT22;10036;47.812;9.274;2022-09-09T05:30:20;14.40;99.90
19755;DHT22;10036;47.812;9.274;2022-09-09T05:32:47;14.40;99.90
19755;DHT22;10036;47.812;9.274;2022-09-09T05:35:14;14.50;99.90
19755;DHT22;10036;47.812;9.274;2022-09-09T05:37:43;14.50;99.90
19755;DHT22;10036;47.812;9.274;2022-09-09T05:40:11;14.50;99.90
19755;DHT22;10036;47.812;9.274;2022-09-09T05:42:38;14.50;99.90
19755;DHT22;10036;47.812;9.274;2022-09-09T05:45:06;14.60;99.90
19755;DHT22;10036;47.812;9.274;2022-09-09T05:47:34;14.60;99.90
19755;DHT22;10036;47.812;9.274;2022-09-09T05:50:01;14.60;99.90
19755;DHT22;10036;47.812;9.274;2022-09-09T05:52:27;14.60;99.90
19755;DHT22;10036;47.812;9.274;2022-09-09T05:54:56;14.70;99.90
19755;DHT22;10036;47.812;9.274;2022-09-09T05:57:23;14.80;99.90
19755;DHT22;10036;47.812;9.274;2022-09-09T05:59:50;14.80;99.90
19755;DHT22;10036;47.812;9.274;2022-09-09T06:02:17;14.80;99.90
19755;DHT22;10036;47.812;9.274;2022-09-09T06:04:44;14.80;99.90
19755;DHT22;10036;47.812;9.274;2022-09-09T06:07:11;14.70;99.90
19755;DHT22;10036;47.812;9.274;2022-09-09T06:09:39;14.70;99.90
19755;DHT22;10036;47.812;9.274;2022-09-09T06:12:08;14.80;99.90
19755;DHT22;10036;47.812;9.274;2022-09-09T06:14:35;14.90;99.90
19755;DHT22;10036;47.812;9.274;2022-09-09T06:17:02;14.90;99.90
19755;DHT22;10036;47.812;9.274;2022-09-09T06:19:29;15.00;99.90
19755;DHT22;10036;47.812;9.274;2022-09-09T06:21:56;15.00;99.90
19755;DHT22;10036;47.812;9.274;2022-09-09T06:24:24;15.10;99.90
19755;DHT22;10036;47.812;9.274;2022-09-09T06:26:51;15.20;99.90
19755;DHT22;10036;47.812;9.274;2022-09-09T06:29:20;15.20;99.90
19755;DHT22;10036;47.812;9.274;2022-09-09T06:31:47;15.20;99.90
19755;DHT22;10036;47.812;9.274;2022-09-09T06:34:14;15.30;99.90
19755;DHT22;10036;47.812;9.274;2022-09-09T06:36:41;15.30;99.90
19755;DHT22;10036;47.812;9.274;2022-09-09T06:39:08;15.40;99.90
19755;DHT22;10036;47.812;9.274;2022-09-09T06:41:37;15.40;99.90
19755;DHT22;10036;47.812;9.274;2022-09-09T06:44:04;15.40;99.90
19755;DHT22;10036;47.812;9.274;2022-09-09T06:46:33;15.40;99.90
19755;DHT22;10036;47.812;9.274;2022-09-09T06:49:01;15.40;99.90
19755;DHT22;10036;47.812;9.274;2022-09-09T06:51:29;15.40;99.90
19755;DHT22;10036;47.812;9.274;2022-09-09T06:53:58;15.40;99.90
19755;DHT22;10036;47.812;9.274;2022-09-09T06:56:26;15.40;99.90
19755;DHT22;10036;47.812;9.274;2022-09-09T06:58:54;15.50;99.90
19755;DHT22;10036;47.812;9.274;2022-09-09T07:01:23;15.60;99.90
19755;DHT22;10036;47.812;9.274;2022-09-09T07:03:54;15.60;99.90
19755;DHT22;10036;47.812;9.274;2022-09-09T07:06:22;15.70;99.90
19755;DHT22;10036;47.812;9.274;2022-09-09T07:08:51;15.80;99.90
19755;DHT22;10036;47.812;9.274;2022-09-09T07:11:19;15.90;99.90
19755;DHT22;10036;47.812;9.274;2022-09-09T07:13:46;16.00;99.90
19755;DHT22;10036;47.812;9.274;2022-09-09T07:16:15;16.00;99.90
19755;DHT22;10036;47.812;9.274;2022-09-09T07:18:43;16.10;99.90
19755;DHT22;10036;47.812;9.274;2022-09-09T07:21:12;16.10;99.90
19755;DHT22;10036;47.812;9.274;2022-09-09T07:23:40;16.20;99.90
19755;DHT22;10036;47.812;9.274;2022-09-09T07:26:08;16.30;99.90
19755;DHT22;10036;47.812;9.274;2022-09-09T07:28:36;16.30;99.90
19755;DHT22;10036;47.812;9.274;2022-09-09T07:31:04;16.30;99.90
19755;DHT22;10036;47.812;9.274;2022-09-09T07:33:32;16.40;99.90
19755;DHT22;10036;47.812;9.274;2022-09-09T07:36:05;16.30;99.90
19755;DHT22;10036;47.812;9.274;2022-09-09T07:38:37;16.30;99.90
19755;DHT22;10036;47.812;9.274;2022-09-09T07:41:06;16.30;99.90
19755;DHT22;10036;47.812;9.274;2022-09-09T07:43:34;16.30;99.90
19755;DHT22;10036;47.812;9.274;2022-09-09T07:46:01;16.30;99.90
19755;DHT22;10036;47.812;9.274;2022-09-09T07:48:28;16.20;99.90
19755;DHT22;10036;47.812;9.274;2022-09-09T07:51:04;16.10;99.90
19755;DHT22;10036;47.812;9.274;2022-09-09T07:53:32;16.10;99.90
19755;DHT22;10036;47.812;9.274;2022-09-09T07:56:05;16.00;99.90
19755;DHT22;10036;47.812;9.274;2022-09-09T07:58:32;16.00;99.90
19755;DHT22;10036;47.812;9.274;2022-09-09T08:00:58;16.10;99.90
19755;DHT22;10036;47.812;9.274;2022-09-09T08:03:25;16.20;99.90
19755;DHT22;10036;47.812;9.274;2022-09-09T08:05:52;16.30;99.90
19755;DHT22;10036;47.812;9.274;2022-09-09T08:08:19;16.40;99.90
19755;DHT22;10036;47.812;9.274;2022-09-09T08:10:46;16.50;99.90
19755;DHT22;10036;47.812;9.274;2022-09-09T08:13:14;16.60;99.90
19755;DHT22;10036;47.812;9.274;2022-09-09T08:15:42;16.60;99.90
19755;DHT22;10036;47.812;9.274;2022-09-09T08:18:09;16.60;99.90
19755;DHT22;10036;47.812;9.274;2022-09-09T08:20:36;16.60;99.90
19755;DHT22;10036;47.812;9.274;2022-09-09T08:23:04;16.60;99.90
19755;DHT22;10036;47.812;9.274;2022-09-09T08:25:31;16.50;99.90
19755;DHT22;10036;47.812;9.274;2022-09-09T08:28:00;16.60;99.90
19755;DHT22;10036;47.812;9.274;2022-09-09T08:30:30;16.60;99.90
19755;DHT22;10036;47.812;9.274;2022-09-09T08:32:57;16.60;99.90
19755;DHT22;10036;47.812;9.274;2022-09-09T08:35:25;16.60;99.90
19755;DHT22;10036;47.812;9.274;2022-09-09T08:37:53;16.60;99.90
19755;DHT22;10036;47.812;9.274;2022-09-09T08:40:26;16.80;99.90
19755;DHT22;10036;47.812;9.274;2022-09-09T08:42:55;17.00;99.90
19755;DHT22;10036;47.812;9.274;2022-09-09T08:45:31;17.00;99.90
19755;DHT22;10036;47.812;9.274;2022-09-09T08:48:09;17.00;99.90
19755;DHT22;10036;47.812;9.274;2022-09-09T08:50:40;17.10;99.90
19755;DHT22;10036;47.812;9.274;2022-09-09T08:53:13;17.10;99.90
19755;DHT22;10036;47.812;9.274;2022-09-09T08:55:45;17.10;99.90
19755;DHT22;10036;47.812;9.274;2022-09-09T08:58:17;17.20;99.90
19755;DHT22;10036;47.812;9.274;2022-09-09T09:01:14;17.40;99.90
19755;DHT22;10036;47.812;9.274;2022-09-09T09:03:50;17.60;99.90
19755;DHT22;10036;47.812;9.274;2022-09-09T09:06:30;17.70;99.90
19755;DHT22;10036;47.812;9.274;2022-09-09T09:09:05;17.80;99.90
19755;DHT22;10036;47.812;9.274;2022-09-09T09:11:38;17.90;99.90
19755;DHT22;10036;47.812;9.274;2022-09-09T09:14:10;18.00;99.90
19755;DHT22;10036;47.812;9.274;2022-09-09T09:16:50;18.00;99.90
19755;DHT22;10036;47.812;9.274;2022-09-09T09:19:17;17.80;99.90
19755;DHT22;10036;47.812;9.274;2022-09-09T09:21:53;17.80;99.90
19755;DHT22;10036;47.812;9.274;2022-09-09T09:24:27;17.70;99.90
19755;DHT22;10036;47.812;9.274;2022-09-09T09:26:59;17.70;99.90
19755;DHT22;10036;47.812;9.274;2022-09-09T09:29:27;17.70;99.90
19755;DHT22;10036;47.812;9.274;2022-09-09T09:31:57;17.70;99.90
19755;DHT22;10036;47.812;9.274;2022-09-09T09:34:26;17.70;99.90
19755;DHT22;10036;47.812;9.274;2022-09-09T09:36:56;17.70;99.90
19755;DHT22;10036;47.812;9.274;2022-09-09T09:39:25;17.80;99.90
19755;DHT22;10036;47.812;9.274;2022-09-09T09:41:53;18.00;99.90
19755;DHT22;10036;47.812;9.274;2022-09-09T09:44:24;18.00;99.90
19755;DHT22;10036;47.812;9.274;2022-09-09T09:46:51;18.00;99.90
19755;DHT22;10036;47.812;9.274;2022-09-09T09:49:19;18.00;99.90
19755;DHT22;10036;47.812;9.274;2022-09-09T09:51:47;18.10;99.90
19755;DHT22;10036;47.812;9.274;2022-09-09T09:54:18;18.10;99.90
19755;DHT22;10036;47.812;9.274;2022-09-09T09:56:49;18.40;99.90
19755;DHT22;10036;47.812;9.274;2022-09-09T09:59:23;18.70;99.90
19755;DHT22;10036;47.812;9.274;2022-09-09T10:02:16;18.80;99.90
19755;DHT22;10036;47.812;9.274;2022-09-09T10:04:45;18.80;99.90
19755;DHT22;10036;47.812;9.274;2022-09-09T10:07:16;18.90;99.90
19755;DHT22;10036;47.812;9.274;2022-09-09T10:09:43;19.00;99.90
19755;DHT22;10036;47.812;9.274;2022-09-09T10:12:19;18.90;99.90
19755;DHT22;10036;47.812;9.274;2022-09-09T10:14:55;18.80;99.90
19755;DHT22;10036;47.812;9.274;2022-09-09T10:17:30;18.70;99.90
19755;DHT22;10036;47.812;9.274;2022-09-09T10:20:15;18.70;99.90
19755;DHT22;10036;47.812;9.274;2022-09-09T10:22:49;18.70;99.90
19755;DHT22;10036;47.812;9.274;2022-09-09T10:25:31;18.70;99.90
19755;DHT22;10036;47.812;9.274;2022-09-09T10:28:27;18.70;99.90
19755;DHT22;10036;47.812;9.274;2022-09-09T10:31:06;18.80;99.90
19755;DHT22;10036;47.812;9.274;2022-09-09T10:33:44;18.80;99.90
19755;DHT22;10036;47.812;9.274;2022-09-09T10:36:19;18.80;99.90
19755;DHT22;10036;47.812;9.274;2022-09-09T10:38:48;19.00;99.90
19755;DHT22;10036;47.812;9.274;2022-09-09T10:41:21;19.00;99.90
19755;DHT22;10036;47.812;9.274;2022-09-09T10:44:12;19.10;99.90
19755;DHT22;10036;47.812;9.274;2022-09-09T10:46:53;19.30;99.90
19755;DHT22;10036;47.812;9.274;2022-09-09T10:49:40;19.50;99.90
19755;DHT22;10036;47.812;9.274;2022-09-09T10:52:15;19.50;99.90
19755;DHT22;10036;47.812;9.274;2022-09-09T10:54:53;19.70;99.90
19755;DHT22;10036;47.812;9.274;2022-09-09T10:57:27;19.80;99.90
19755;DHT22;10036;47.812;9.274;2022-09-09T10:59:59;19.90;99.90
19755;DHT22;10036;47.812;9.274;2022-09-09T11:02:29;19.80;99.90
19755;DHT22;10036;47.812;9.274;2022-09-09T11:05:00;19.80;99.90
19755;DHT22;10036;47.812;9.274;2022-09-09T11:07:35;19.80;99.90
19755;DHT22;10036;47.812;9.274;2022-09-09T11:10:07;19.90;99.90
19755;DHT22;10036;47.812;9.274;2022-09-09T11:12:43;19.90;99.90
19755;DHT22;10036;47.812;9.274;2022-09-09T11:15:18;19.80;99.90
19755;DHT22;10036;47.812;9.274;2022-09-09T11:17:49;19.70;99.90
19755;DHT22;10036;47.812;9.274;2022-09-09T11:20:17;19.50;99.90
19755;DHT22;10036;47.812;9.274;2022-09-09T11:22:49;19.60;99.90
19755;DHT22;10036;47.812;9.274;2022-09-09T11:25:21;19.50;99.90
19755;DHT22;10036;47.812;9.274;2022-09-09T11:27:59;19.40;99.90
19755;DHT22;10036;47.812;9.274;2022-09-09T11:30:36;19.30;99.90
19755;DHT22;10036;47.812;9.274;2022-09-09T11:33:36;19.30;99.90
19755;DHT22;10036;47.812;9.274;2022-09-09T11:36:26;19.20;99.90
19755;DHT22;10036;47.812;9.274;2022-09-09T11:39:05;19.20;99.90
19755;DHT22;10036;47.812;9.274;2022-09-09T11:41:40;19.30;99.90
19755;DHT22;10036;47.812;9.274;2022-09-09T11:44:11;19.50;99.90
19755;DHT22;10036;47.812;9.274;2022-09-09T11:46:40;19.80;99.90
19755;DHT22;10036;47.812;9.274;2022-09-09T11:49:26;20.10;99.90
19755;DHT22;10036;47.812;9.274;2022-09-09T11:51:53;20.10;99.90
19755;DHT22;10036;47.812;9.274;2022-09-09T11:54:30;20.40;99.90
19755;DHT22;10036;47.812;9.274;2022-09-09T11:56:57;20.50;99.90
19755;DHT22;10036;47.812;9.274;2022-09-09T11:59:27;20.40;99.90
19755;DHT22;10036;47.812;9.274;2022-09-09T12:01:55;20.30;99.90
19755;DHT22;10036;47.812;9.274;2022-09-09T12:04:30;20.30;99.90
19755;DHT22;10036;47.812;9.274;2022-09-09T12:07:00;20.40;99.90
19755;DHT22;10036;47.812;9.274;2022-09-09T12:09:44;20.50;99.90
19755;DHT22;10036;47.812;9.274;2022-09-09T12:12:26;20.50;99.90
19755;DHT22;10036;47.812;9.274;2022-09-09T12:15:19;20.50;99.90
19755;DHT22;10036;47.812;9.274;2022-09-09T12:17:48;20.60;99.90
19755;DHT22;10036;47.812;9.274;2022-09-09T12:20:18;20.60;99.90
19755;DHT22;10036;47.812;9.274;2022-09-09T12:23:02;20.70;99.90
19755;DHT22;10036;47.812;9.274;2022-09-09T12:25:43;20.80;99.90
19755;DHT22;10036;47.812;9.274;2022-09-09T12:28:17;20.70;99.90
19755;DHT22;10036;47.812;9.274;2022-09-09T12:30:50;20.70;99.90
19755;DHT22;10036;47.812;9.274;2022-09-09T12:33:19;20.70;99.90
19755;DHT22;10036;47.812;9.274;2022-09-09T12:35:51;20.60;99.90
19755;DHT22;10036;47.812;9.274;2022-09-09T12:38:35;20.70;99.90
19755;DHT22;10036;47.812;9.274;2022-09-09T12:41:04;20.70;99.90
19755;DHT22;10036;47.812;9.274;2022-09-09T12:43:31;20.60;99.90
19755;DHT22;10036;47.812;9.274;2022-09-09T12:46:00;20.70;99.90
19755;DHT22;10036;47.812;9.274;2022-09-09T12:48:32;20.80;99.90
19755;DHT22;10036;47.812;9.274;2022-09-09T12:51:00;20.90;99.90
19755;DHT22;10036;47.812;9.274;2022-09-09T12:53:31;20.90;99.90
19755;DHT22;10036;47.812;9.274;2022-09-09T12:56:01;20.90;99.90
19755;DHT22;10036;47.812;9.274;2022-09-09T12:58:31;21.10;99.90
19755;DHT22;10036;47.812;9.274;2022-09-09T13:01:00;21.10;99.90
19755;DHT22;10036;47.812;9.274;2022-09-09T13:03:31;21.20;99.90
19755;DHT22;10036;47.812;9.274;2022-09-09T13:05:59;21.30;99.90
19755;DHT22;10036;47.812;9.274;2022-09-09T13:08:37;21.20;99.90
19755;DHT22;10036;47.812;9.274;2022-09-09T13:11:07;21.10;99.90
19755;DHT22;10036;47.812;9.274;2022-09-09T13:13:40;21.30;99.90
19755;DHT22;10036;47.812;9.274;2022-09-09T13:16:21;21.40;99.90
19755;DHT22;10036;47.812;9.274;2022-09-09T13:18:49;21.50;99.90
19755;DHT22;10036;47.812;9.274;2022-09-09T13:21:16;21.50;99.90
19755;DHT22;10036;47.812;9.274;2022-09-09T13:23:48;21.50;99.90
19755;DHT22;10036;47.812;9.274;2022-09-09T13:26:24;21.60;99.90
19755;DHT22;10036;47.812;9.274;2022-09-09T13:28:54;21.70;99.90
19755;DHT22;10036;47.812;9.274;2022-09-09T13:31:23;21.80;99.90
19755;DHT22;10036;47.812;9.274;2022-09-09T13:33:52;21.80;99.90
19755;DHT22;10036;47.812;9.274;2022-09-09T13:36:28;21.90;99.90
19755;DHT22;10036;47.812;9.274;2022-09-09T13:38:57;22.00;99.90
19755;DHT22;10036;47.812;9.274;2022-09-09T13:41:29;22.00;99.90
19755;DHT22;10036;47.812;9.274;2022-09-09T13:43:59;21.90;99.90
19755;DHT22;10036;47.812;9.274;2022-09-09T13:46:32;21.90;99.90
19755;DHT22;10036;47.812;9.274;2022-09-09T13:49:01;22.00;99.90
19755;DHT22;10036;47.812;9.274;2022-09-09T13:51:35;22.10;99.90
19755;DHT22;10036;47.812;9.274;2022-09-09T13:54:03;22.20;99.90
19755;DHT22;10036;47.812;9.274;2022-09-09T13:56:31;22.40;99.90
19755;DHT22;10036;47.812;9.274;2022-09-09T13:59:00;22.60;99.90
19755;DHT22;10036;47.812;9.274;2022-09-09T14:01:27;22.70;99.90
19755;DHT22;10036;47.812;9.274;2022-09-09T14:03:54;22.70;99.90
19755;DHT22;10036;47.812;9.274;2022-09-09T14:06:21;22.80;99.90
19755;DHT22;10036;47.812;9.274;2022-09-09T14:08:49;22.90;99.90
19755;DHT22;10036;47.812;9.274;2022-09-09T14:11:17;22.90;99.90
19755;DHT22;10036;47.812;9.274;2022-09-09T14:13:44;22.90;99.90
19755;DHT22;10036;47.812;9.274;2022-09-09T14:16:13;23.00;99.90
19755;DHT22;10036;47.812;9.274;2022-09-09T14:18:40;23.30;99.90
19755;DHT22;10036;47.812;9.274;2022-09-09T14:21:07;23.30;99.90
19755;DHT22;10036;47.812;9.274;2022-09-09T14:23:34;23.20;99.90
19755;DHT22;10036;47.812;9.274;2022-09-09T14:26:01;23.10;99.90
19755;DHT22;10036;47.812;9.274;2022-09-09T14:28:28;23.20;99.90
19755;DHT22;10036;47.812;9.274;2022-09-09T14:30:58;23.20;99.90
19755;DHT22;10036;47.812;9.274;2022-09-09T14:33:27;23.30;99.90
19755;DHT22;10036;47.812;9.274;2022-09-09T14:35:56;23.10;99.90
19755;DHT22;10036;47.812;9.274;2022-09-09T14:38:23;23.10;99.90
19755;DHT22;10036;47.812;9.274;2022-09-09T14:40:50;23.00;99.90
19755;DHT22;10036;47.812;9.274;2022-09-09T14:43:17;22.90;99.90
19755;DHT22;10036;47.812;9.274;2022-09-09T14:45:44;23.00;99.90
19755;DHT22;10036;47.812;9.274;2022-09-09T14:48:11;22.90;99.90
19755;DHT22;10036;47.812;9.274;2022-09-09T14:50:40;23.00;99.90
19755;DHT22;10036;47.812;9.274;2022-09-09T14:53:07;23.20;99.90
19755;DHT22;10036;47.812;9.274;2022-09-09T14:55:34;23.30;99.90
19755;DHT22;10036;47.812;9.274;2022-09-09T14:58:01;23.30;99.90
19755;DHT22;10036;47.812;9.274;2022-09-09T15:00:28;23.30;99.90
19755;DHT22;10036;47.812;9.274;2022-09-09T15:02:55;23.30;99.90
19755;DHT22;10036;47.812;9.274;2022-09-09T15:05:21;23.10;99.90
19755;DHT22;10036;47.812;9.274;2022-09-09T15:07:51;23.00;99.90
19755;DHT22;10036;47.812;9.274;2022-09-09T15:10:17;22.50;99.90
19755;DHT22;10036;47.812;9.274;2022-09-09T15:12:44;22.30;99.90
19755;DHT22;10036;47.812;9.274;2022-09-09T15:15:11;22.10;99.90
19755;DHT22;10036;47.812;9.274;2022-09-09T15:17:38;22.10;99.90
19755;DHT22;10036;47.812;9.274;2022-09-09T15:20:06;22.00;99.90
19755;DHT22;10036;47.812;9.274;2022-09-09T15:22:33;21.80;99.90
19755;DHT22;10036;47.812;9.274;2022-09-09T15:25:04;21.70;99.90
19755;DHT22;10036;47.812;9.274;2022-09-09T15:27:32;21.50;99.90
19755;DHT22;10036;47.812;9.274;2022-09-09T15:29:59;21.50;99.90
19755;DHT22;10036;47.812;9.274;2022-09-09T15:32:27;21.50;99.90
19755;DHT22;10036;47.812;9.274;2022-09-09T15:34:54;21.90;99.90
19755;DHT22;10036;47.812;9.274;2022-09-09T15:37:21;22.30;99.90
19755;DHT22;10036;47.812;9.274;2022-09-09T15:39:48;22.40;99.90
19755;DHT22;10036;47.812;9.274;2022-09-09T15:42:16;22.60;99.90
19755;DHT22;10036;47.812;9.274;2022-09-09T15:44:43;22.60;99.90
19755;DHT22;10036;47.812;9.274;2022-09-09T15:47:11;22.50;99.90
19755;DHT22;10036;47.812;9.274;2022-09-09T15:49:39;22.70;99.90
19755;DHT22;10036;47.812;9.274;2022-09-09T15:52:06;22.70;99.90